Time;durP1;ratioP1;P1;durP2;ratioP2;P2;SDS_P1;SDS_P2;PMS_P1;PMS_P2;Temp;Humidity;BMP_temperature;BMP_pressure;BME280_temperature;BME280_humidity;BME280_pressure;Samples;Min_cycle;Max_cycle;Signal;HPM_P1;HPM_P2
2021/06/27 00:01:07;;;;;;;12.40;8.27;;;;;;;26.86;70.87;68933.34;5050687;28;20206;-67
2021/06/27 00:03:36;;;;;;;11.33;8.90;;;;;;;26.82;72.02;68928.19;5050331;28;20198;-67
2021/06/27 00:06:03;;;;;;;11.90;8.83;;;;;;;26.77;71.43;68923.00;5050521;28;20211;-67
2021/06/27 00:08:30;;;;;;;16.40;10.13;;;;;;;26.71;74.14;68915.38;5050512;28;20227;-67
2021/06/27 00:10:59;;;;;;;13.47;9.40;;;;;;;26.66;73.36;68909.66;5051752;28;20204;-68
2021/06/27 00:13:27;;;;;;;13.70;9.03;;;;;;;26.60;74.28;68904.19;5050463;28;20319;-68
2021/06/27 00:15:55;;;;;;;14.17;10.17;;;;;;;26.57;71.75;68900.72;5049321;28;20215;-68
2021/06/27 00:18:23;;;;;;;15.23;9.43;;;;;;;26.54;71.88;68898.09;5050259;28;20226;-68
2021/06/27 00:20:54;;;;;;;15.10;9.90;;;;;;;26.52;71.51;68895.03;5050091;28;20205;-68
2021/06/27 00:23:24;;;;;;;12.87;10.07;;;;;;;26.49;71.89;68891.88;5051407;28;20215;-68
2021/06/27 00:25:51;;;;;;;13.83;10.17;;;;;;;26.45;72.35;68888.19;5049343;28;20216;-68
2021/06/27 00:28:20;;;;;;;12.30;9.93;;;;;;;26.41;74.42;68882.75;5054728;28;20247;-67
2021/06/27 00:30:50;;;;;;;14.90;10.77;;;;;;;26.37;73.78;68878.91;5050020;28;20216;-68
2021/06/27 00:33:17;;;;;;;11.30;9.37;;;;;;;26.33;74.45;68873.09;5051355;28;20280;-68
2021/06/27 00:35:45;;;;;;;14.57;10.60;;;;;;;26.29;74.70;68868.97;5049120;28;20201;-68
2021/06/27 00:38:14;;;;;;;14.20;10.23;;;;;;;26.25;74.30;68865.72;5050189;28;20709;-68
2021/06/27 00:40:41;;;;;;;15.93;10.53;;;;;;;26.19;77.58;68859.22;5050190;28;20206;-68
2021/06/27 00:43:09;;;;;;;14.40;10.93;;;;;;;26.14;77.29;68854.47;5051144;28;20200;-68
2021/06/27 00:45:38;;;;;;;12.93;10.47;;;;;;;26.11;75.77;68851.00;5049766;28;20217;-68
2021/06/27 00:48:06;;;;;;;16.73;11.00;;;;;;;26.08;75.93;68847.63;5051152;28;20218;-70
2021/06/27 00:50:35;;;;;;;15.43;11.10;;;;;;;26.05;76.09;68844.06;5050009;28;20289;-70
2021/06/27 00:53:03;;;;;;;15.97;10.97;;;;;;;26.02;76.48;68840.91;5051109;28;20223;-68
2021/06/27 00:55:31;;;;;;;17.53;11.60;;;;;;;26.00;76.12;68838.31;5050028;28;20202;-68
2021/06/27 00:57:59;;;;;;;15.63;11.63;;;;;;;25.98;76.31;68835.78;5050985;28;20231;-68
2021/06/27 01:00:28;;;;;;;14.93;10.37;;;;;;;25.96;75.31;68833.94;5050729;28;20201;-68
2021/06/27 01:02:56;;;;;;;14.30;11.13;;;;;;;25.93;76.51;68831.13;5049330;28;20195;-68
2021/06/27 01:05:24;;;;;;;16.13;10.70;;;;;;;25.91;75.32;68829.47;5050023;28;20218;-68
2021/06/27 01:07:52;;;;;;;15.00;10.30;;;;;;;25.89;76.17;68826.72;5047861;28;20238;-68
2021/06/27 01:10:19;;;;;;;14.97;10.30;;;;;;;25.87;75.50;68824.53;5049775;28;20233;-68
2021/06/27 01:12:48;;;;;;;13.93;10.10;;;;;;;25.84;76.39;68821.84;5050197;28;20202;-68
2021/06/27 01:15:17;;;;;;;13.73;10.23;;;;;;;25.82;76.52;68819.16;5051022;28;20213;-68
2021/06/27 01:17:46;;;;;;;13.60;9.80;;;;;;;25.79;76.42;68816.16;5052386;28;20302;-68
2021/06/27 01:20:16;;;;;;;13.17;9.27;;;;;;;25.76;75.75;68812.47;5056068;28;20208;-68
2021/06/27 01:22:44;;;;;;;13.40;9.03;;;;;;;25.73;76.12;68808.16;5057562;28;20206;-68
2021/06/27 01:25:13;;;;;;;12.33;8.87;;;;;;;25.70;75.78;68805.63;5050625;28;20548;-68
2021/06/27 01:27:40;;;;;;;10.67;8.70;;;;;;;25.68;75.32;68803.09;5049810;28;20264;-67
2021/06/27 01:30:10;;;;;;;10.17;7.67;;;;;;;25.65;74.71;68800.53;5051598;28;20203;-67
2021/06/27 01:32:39;;;;;;;13.03;9.00;;;;;;;25.60;78.02;68794.75;5051885;28;20214;-69
2021/06/27 01:35:09;;;;;;;11.13;8.07;;;;;;;25.55;77.23;68789.63;5053269;28;20205;-67
2021/06/27 01:37:37;;;;;;;12.27;8.63;;;;;;;25.52;75.91;68786.63;5054432;28;20305;-67
2021/06/27 01:40:07;;;;;;;11.40;7.77;;;;;;;25.49;77.13;68783.41;5052857;28;20209;-67
2021/06/27 01:42:34;;;;;;;11.37;8.03;;;;;;;25.47;75.46;68780.66;5054216;28;20213;-68
2021/06/27 01:45:12;;;;;;;9.90;7.97;;;;;;;25.45;75.00;68777.91;5050385;28;20202;-68
2021/06/27 01:47:39;;;;;;;10.43;7.60;;;;;;;25.42;74.79;68775.19;5053363;28;20713;-67
2021/06/27 01:50:08;;;;;;;11.87;7.33;;;;;;;25.39;75.09;68771.34;5053262;28;20228;-68
2021/06/27 01:52:35;;;;;;;9.10;7.17;;;;;;;25.35;76.13;68767.06;5053995;28;20205;-67
2021/06/27 01:55:02;;;;;;;9.20;7.03;;;;;;;25.30;77.59;68761.81;5051705;28;20625;-68
2021/06/27 01:57:31;;;;;;;7.47;6.33;;;;;;;25.26;76.46;68757.50;5053770;28;20737;-68
2021/06/27 01:59:58;;;;;;;9.50;6.93;;;;;;;25.23;75.34;68753.91;5052077;28;20789;-67
2021/06/27 02:02:25;;;;;;;8.57;6.50;;;;;;;25.21;73.89;68752.72;5053052;28;20587;-67
2021/06/27 02:04:53;;;;;;;11.73;6.93;;;;;;;25.18;76.67;68748.84;5048872;28;20205;-67
2021/06/27 02:07:20;;;;;;;9.83;6.37;;;;;;;25.17;74.01;68747.44;5053793;28;20222;-68
2021/06/27 02:09:47;;;;;;;8.50;6.50;;;;;;;25.15;73.67;68746.50;5051535;28;20211;-68
2021/06/27 02:12:15;;;;;;;8.23;6.37;;;;;;;25.11;76.36;68741.75;5053092;28;20203;-68
2021/06/27 02:14:43;;;;;;;10.17;6.87;;;;;;;25.10;74.11;68740.50;5051272;28;20240;-68
2021/06/27 02:17:11;;;;;;;8.93;7.20;;;;;;;25.08;76.19;68737.63;5053298;28;20222;-68
2021/06/27 02:19:38;;;;;;;9.50;6.20;;;;;;;25.06;75.60;68735.91;5051838;28;20206;-68
2021/06/27 02:22:06;;;;;;;9.27;6.53;;;;;;;25.06;73.41;68736.00;5053545;28;20209;-68
2021/06/27 02:24:33;;;;;;;8.13;6.63;;;;;;;25.05;74.03;68735.03;5051370;28;20209;-68
2021/06/27 02:27:02;;;;;;;7.73;6.43;;;;;;;25.05;73.83;68735.03;5049839;28;20234;-68
2021/06/27 02:29:29;;;;;;;7.47;6.23;;;;;;;25.04;74.47;68733.47;5052815;28;20681;-68
2021/06/27 02:31:59;;;;;;;7.83;5.63;;;;;;;25.04;72.84;68733.59;5051980;28;20692;-68
2021/06/27 02:34:27;;;;;;;7.27;5.90;;;;;;;25.04;72.59;68733.47;5052348;28;20230;-68
2021/06/27 02:36:54;;;;;;;7.70;5.60;;;;;;;25.03;73.02;68732.91;5051532;28;20318;-68
2021/06/27 02:39:21;;;;;;;6.53;5.00;;;;;;;25.02;73.18;68731.06;5052996;28;20203;-68
2021/06/27 02:41:48;;;;;;;6.07;5.07;;;;;;;25.01;72.59;68730.19;5050526;28;20205;-68
2021/06/27 02:44:16;;;;;;;5.93;4.93;;;;;;;24.97;74.82;68726.53;5052503;28;20206;-68
2021/06/27 02:46:43;;;;;;;7.40;5.20;;;;;;;24.94;73.83;68722.91;5051348;28;20682;-68
2021/06/27 02:49:11;;;;;;;6.73;5.40;;;;;;;24.92;74.03;68720.38;5052783;28;20206;-68
2021/06/27 02:51:39;;;;;;;8.13;5.00;;;;;;;24.90;73.51;68718.81;5051128;28;20654;-68
2021/06/27 02:54:06;;;;;;;7.77;5.20;;;;;;;24.88;74.92;68715.69;5050522;28;20241;-68
2021/06/27 02:56:33;;;;;;;6.97;5.27;;;;;;;24.86;73.10;68714.41;5051984;28;20293;-68
2021/06/27 02:59:00;;;;;;;7.47;5.00;;;;;;;24.84;75.00;68711.94;5051345;28;20213;-68
2021/06/27 03:01:28;;;;;;;6.93;4.97;;;;;;;24.83;74.38;68710.56;5052277;28;20214;-68
2021/06/27 03:03:55;;;;;;;8.33;4.63;;;;;;;24.81;74.05;68709.06;5050828;28;20207;-68
2021/06/27 03:06:23;;;;;;;6.80;4.63;;;;;;;24.78;74.46;68705.69;5052158;28;20213;-68
2021/06/27 03:08:51;;;;;;;6.10;4.60;;;;;;;24.75;74.96;68702.28;5050849;28;20216;-68
2021/06/27 03:11:18;;;;;;;5.70;4.70;;;;;;;24.73;74.56;68700.00;5051228;28;20214;-68
2021/06/27 03:13:45;;;;;;;5.30;4.77;;;;;;;24.70;75.18;68697.13;5051714;28;20238;-68
2021/06/27 03:16:13;;;;;;;5.83;4.50;;;;;;;24.69;73.42;68696.59;5048948;28;20199;-68
2021/06/27 03:18:40;;;;;;;5.63;4.63;;;;;;;24.69;72.90;68695.91;5052428;28;20230;-68
2021/06/27 03:21:08;;;;;;;5.03;4.43;;;;;;;24.67;73.74;68694.00;5050694;28;20206;-68
2021/06/27 03:23:36;;;;;;;6.20;4.47;;;;;;;24.62;77.27;68688.63;5049805;28;20202;-68
2021/06/27 03:26:04;;;;;;;5.43;4.53;;;;;;;24.61;73.82;68687.00;5051963;28;20224;-68
2021/06/27 03:28:34;;;;;;;5.27;4.50;;;;;;;24.60;74.16;68686.63;5050803;28;20267;-68
2021/06/27 03:31:01;;;;;;;7.47;5.03;;;;;;;24.61;72.50;68686.88;5043899;28;20221;-68
2021/06/27 03:33:28;;;;;;;5.30;4.30;;;;;;;24.61;72.87;68687.00;5050856;28;20202;-68
2021/06/27 03:35:55;;;;;;;8.03;5.33;;;;;;;24.61;73.89;68687.34;5051381;28;20208;-68
2021/06/27 03:38:26;;;;;;;7.00;4.57;;;;;;;24.62;72.00;68688.38;5050757;28;20233;-68
2021/06/27 03:40:55;;;;;;;6.10;5.10;;;;;;;24.62;73.04;68689.59;5051464;28;20308;-68
2021/06/27 03:43:22;;;;;;;5.30;4.27;;;;;;;24.65;71.10;68692.31;5050169;28;20302;-68
2021/06/27 03:45:49;;;;;;;8.17;5.40;;;;;;;24.67;71.50;68694.47;5051142;28;20297;-68
2021/06/27 03:48:16;;;;;;;8.40;5.10;;;;;;;24.69;71.96;68696.91;5050555;28;20229;-68
2021/06/27 03:50:44;;;;;;;6.20;5.07;;;;;;;24.72;70.15;68700.81;5051191;28;20214;-68
2021/06/27 03:53:11;;;;;;;5.47;4.67;;;;;;;24.74;71.14;68704.00;5050598;28;20285;-68
2021/06/27 03:55:40;;;;;;;8.03;5.40;;;;;;;24.76;72.80;68705.63;5050561;28;20228;-68
2021/06/27 03:58:08;;;;;;;7.20;5.00;;;;;;;24.78;70.99;68708.06;5050112;28;20234;-69
2021/06/27 04:00:36;;;;;;;9.53;5.33;;;;;;;24.80;72.05;68710.34;5051470;28;20301;-68
2021/06/27 04:03:03;;;;;;;8.53;5.60;;;;;;;24.83;71.16;68713.50;5050394;28;20239;-69
2021/06/27 04:05:30;;;;;;;6.97;5.57;;;;;;;24.85;71.43;68716.53;5050166;28;20202;-68
2021/06/27 04:07:59;;;;;;;8.10;6.17;;;;;;;24.90;70.52;68721.19;5049954;28;20313;-69
2021/06/27 04:10:27;;;;;;;6.60;5.70;;;;;;;24.95;70.50;68726.75;5047198;28;20300;-69
2021/06/27 04:12:54;;;;;;;7.73;6.37;;;;;;;24.99;71.09;68731.47;5050047;28;20686;-69
2021/06/27 04:15:23;;;;;;;7.13;5.83;;;;;;;25.03;70.43;68736.63;5048866;28;20230;-69
2021/06/27 04:17:50;;;;;;;7.30;6.00;;;;;;;25.08;70.37;68742.25;5050622;28;20227;-69
2021/06/27 04:20:17;;;;;;;8.17;6.57;;;;;;;25.14;69.49;68748.78;5046816;28;20208;-69
2021/06/27 04:22:44;;;;;;;9.23;6.90;;;;;;;25.19;70.11;68755.16;5056830;28;20204;-69
2021/06/27 04:25:12;;;;;;;10.70;6.53;;;;;;;25.24;70.38;68760.91;5058823;28;20203;-68
2021/06/27 04:27:40;;;;;;;7.53;6.43;;;;;;;25.30;68.88;68767.56;5052647;28;20584;-70
2021/06/27 04:30:08;;;;;;;5.83;5.23;;;;;;;25.34;69.77;68772.56;5052030;28;20202;-70
2021/06/27 04:32:37;;;;;;;7.87;6.33;;;;;;;25.41;66.97;68780.28;5048079;28;20226;-70
2021/06/27 04:35:06;;;;;;;10.10;6.77;;;;;;;25.47;68.90;68786.25;5050987;28;20714;-70
2021/06/27 04:37:34;;;;;;;8.07;6.60;;;;;;;25.54;68.44;68793.66;5048431;28;20319;-72
2021/06/27 04:40:01;;;;;;;10.37;6.53;;;;;;;25.60;67.53;68800.78;5051395;28;20339;-70
2021/06/27 04:42:28;;;;;;;9.40;6.93;;;;;;;25.65;68.72;68806.16;5051087;28;20668;-70
2021/06/27 04:44:56;;;;;;;9.97;6.57;;;;;;;25.72;67.39;68814.22;5051141;28;20642;-71
2021/06/27 04:47:23;;;;;;;8.47;6.37;;;;;;;25.81;66.06;68823.97;5051305;28;20243;-70
2021/06/27 04:49:52;;;;;;;8.17;6.77;;;;;;;25.86;67.27;68830.31;5050960;28;20220;-70
2021/06/27 04:52:19;;;;;;;9.30;5.90;;;;;;;25.87;71.29;68830.88;5051515;28;20212;-70
2021/06/27 04:54:48;;;;;;;8.27;6.77;;;;;;;25.94;66.20;68839.78;5048809;28;20618;-70
2021/06/27 04:57:15;;;;;;;10.87;6.20;;;;;;;26.03;64.27;68849.34;5047660;28;20226;-70
2021/06/27 04:59:43;;;;;;;11.33;6.40;;;;;;;26.08;67.42;68854.41;5051440;28;20218;-70
2021/06/27 05:02:10;;;;;;;7.83;5.93;;;;;;;26.08;72.28;68855.59;5050193;28;20210;-70
2021/06/27 05:04:37;;;;;;;9.00;6.70;;;;;;;26.10;70.67;68858.84;5053193;28;20210;-70
2021/06/27 05:07:06;;;;;;;14.10;6.80;;;;;;;26.19;64.07;68868.16;5053811;28;20233;-70
2021/06/27 05:09:33;;;;;;;7.57;6.13;;;;;;;26.25;65.92;68875.06;5054748;28;20679;-70
2021/06/27 05:12:00;;;;;;;7.77;6.40;;;;;;;26.33;64.41;68884.34;5046546;28;20228;-71
2021/06/27 05:14:28;;;;;;;8.90;6.83;;;;;;;26.42;62.79;68894.81;5054688;28;20225;-70
2021/06/27 05:16:55;;;;;;;8.60;7.47;;;;;;;26.41;66.66;68893.66;5054288;28;20689;-70
2021/06/27 05:19:22;;;;;;;8.63;6.67;;;;;;;26.48;62.69;68901.41;5054975;28;20204;-70
2021/06/27 05:21:50;;;;;;;9.00;6.63;;;;;;;26.47;64.79;68900.50;5053678;28;20202;-70
2021/06/27 05:24:19;;;;;;;9.30;6.67;;;;;;;26.52;62.26;68906.13;5054381;28;20197;-70
2021/06/27 05:26:47;;;;;;;8.57;6.33;;;;;;;26.58;61.95;68913.72;5051520;28;20242;-70
2021/06/27 05:29:14;;;;;;;8.13;6.43;;;;;;;26.62;62.48;68918.00;5054954;28;20228;-69
2021/06/27 05:31:41;;;;;;;10.63;6.53;;;;;;;26.69;61.07;68925.00;5053822;28;20208;-69
2021/06/27 05:34:09;;;;;;;6.33;5.70;;;;;;;26.81;57.39;68939.09;5053826;28;20209;-68
2021/06/27 05:36:37;;;;;;;7.50;5.83;;;;;;;26.93;55.32;68952.78;5053896;28;20226;-69
2021/06/27 05:39:06;;;;;;;5.90;5.30;;;;;;;27.08;53.05;68969.56;5053206;28;20198;-68
2021/06/27 05:41:35;;;;;;;5.90;5.03;;;;;;;27.21;50.75;68983.44;5054337;28;20209;-70
2021/06/27 05:44:02;;;;;;;8.23;5.00;;;;;;;27.20;58.44;68982.84;5046073;28;20202;-69
2021/06/27 05:46:30;;;;;;;5.47;4.83;;;;;;;27.23;57.32;68985.38;5054203;28;20206;-69
2021/06/27 05:48:57;;;;;;;7.27;5.33;;;;;;;27.24;57.98;68987.03;5054183;28;20209;-69
2021/06/27 05:51:25;;;;;;;6.37;4.93;;;;;;;27.28;56.60;68991.66;5053691;28;20225;-69
2021/06/27 05:53:52;;;;;;;6.40;5.40;;;;;;;27.30;57.86;68995.16;5053444;28;20256;-69
2021/06/27 05:56:20;;;;;;;5.67;4.70;;;;;;;27.36;55.55;69001.31;5053663;28;20713;-69
2021/06/27 05:58:49;;;;;;;8.13;4.83;;;;;;;27.41;53.77;69007.81;5050631;28;20207;-69
2021/06/27 06:01:17;;;;;;;6.73;4.77;;;;;;;27.49;51.54;69017.00;5054163;28;20207;-69
2021/06/27 06:03:45;;;;;;;5.93;4.63;;;;;;;27.50;56.40;69017.84;5052945;28;20209;-69
2021/06/27 06:06:14;;;;;;;5.37;4.87;;;;;;;27.50;57.64;69018.06;5053517;28;20573;-70
2021/06/27 06:08:42;;;;;;;5.67;4.77;;;;;;;27.48;59.19;69015.78;5053966;28;20210;-69
2021/06/27 06:11:09;;;;;;;6.63;4.80;;;;;;;27.39;63.48;69006.06;5050777;28;20199;-71
2021/06/27 06:13:37;;;;;;;6.03;4.70;;;;;;;27.38;59.64;69004.63;5053047;28;20567;-70
2021/06/27 06:16:06;;;;;;;7.47;6.07;;;;;;;27.35;60.80;69001.28;5051588;28;20226;-71
2021/06/27 06:18:34;;;;;;;6.30;4.97;;;;;;;27.36;58.30;69002.44;5049707;28;20232;-70
2021/06/27 06:21:02;;;;;;;6.97;6.13;;;;;;;27.37;60.55;69003.47;5054057;28;20198;-70
2021/06/27 06:23:29;;;;;;;8.63;5.53;;;;;;;27.46;54.20;69013.03;5053593;28;20213;-71
2021/06/27 06:25:57;;;;;;;7.43;6.03;;;;;;;27.45;58.80;69012.50;5053932;28;20210;-71
2021/06/27 06:28:24;;;;;;;7.47;5.70;;;;;;;27.54;53.21;69021.88;5053839;28;20234;-70
2021/06/27 06:30:52;;;;;;;7.93;6.30;;;;;;;27.63;51.89;69032.06;5053415;28;20219;-70
2021/06/27 06:33:21;;;;;;;5.97;5.23;;;;;;;27.76;49.47;69047.03;5052741;28;20701;-75
2021/06/27 06:35:48;;;;;;;8.47;5.20;;;;;;;27.76;56.64;69046.97;5052827;28;20335;-69
2021/06/27 06:38:16;;;;;;;5.70;5.07;;;;;;;27.72;59.28;69043.28;5051985;28;20722;-71
2021/06/27 06:40:43;;;;;;;5.90;4.50;;;;;;;27.79;53.42;69050.13;5052181;28;20213;-76
2021/06/27 06:43:10;;;;;;;4.90;4.40;;;;;;;27.88;51.38;69060.91;5053574;28;20205;-73
2021/06/27 06:45:37;;;;;;;8.43;4.93;;;;;;;27.93;53.57;69066.72;5051092;28;20203;-73
2021/06/27 06:48:06;;;;;;;5.60;4.63;;;;;;;28.00;51.58;69074.31;5053331;28;20226;-74
2021/06/27 06:50:34;;;;;;;6.20;3.93;;;;;;;27.95;58.39;69069.59;5052557;28;20203;-73
2021/06/27 06:53:02;;;;;;;4.83;3.93;;;;;;;28.02;52.36;69077.31;5052785;28;20207;-70
2021/06/27 06:55:29;;;;;;;5.17;3.97;;;;;;;28.07;53.65;69082.41;5051188;28;20231;-71
2021/06/27 06:57:57;;;;;;;6.33;4.27;;;;;;;28.08;55.47;69083.84;5052935;28;20224;-76
2021/06/27 07:00:24;;;;;;;6.57;4.77;;;;;;;28.15;53.18;69091.63;5054004;28;20317;-69
2021/06/27 07:02:52;;;;;;;5.63;4.63;;;;;;;28.26;49.66;69103.72;5052067;28;20207;-69
2021/06/27 07:05:19;;;;;;;7.70;4.30;;;;;;;28.40;46.85;69119.78;5052310;28;20203;-71
2021/06/27 07:07:48;;;;;;;7.83;4.63;;;;;;;28.51;47.33;69133.03;5050528;28;20231;-73
2021/06/27 07:10:16;;;;;;;6.30;5.37;;;;;;;28.57;48.96;69139.75;5060085;28;20295;-73
2021/06/27 07:12:43;;;;;;;5.87;4.33;;;;;;;28.63;50.72;69145.81;5059393;28;20207;-75
2021/06/27 07:15:11;;;;;;;5.10;4.60;;;;;;;28.67;52.12;69151.09;5057090;28;20230;-74
2021/06/27 07:17:39;;;;;;;6.27;4.07;;;;;;;28.66;53.52;69150.38;5052696;28;20229;-77
2021/06/27 07:20:08;;;;;;;4.70;4.07;;;;;;;28.69;52.07;69154.41;5052561;28;20289;-75
2021/06/27 07:22:36;;;;;;;6.00;4.20;;;;;;;28.71;52.64;69156.72;5062753;28;20450;-72
2021/06/27 07:25:06;;;;;;;4.70;4.10;;;;;;;28.75;52.14;69160.88;5060812;28;20197;-72
2021/06/27 07:27:33;;;;;;;5.45;4.30;;;;;;;28.79;51.59;69165.59;5059368;28;20234;-73
2021/06/27 07:30:01;;;;;;;6.05;4.72;;;;;;;28.92;46.72;69179.63;5071445;28;20428;-74
2021/06/27 07:32:28;;;;;;;5.20;4.38;;;;;;;28.99;49.08;69187.72;5072301;28;20231;-73
2021/06/27 07:34:55;;;;;;;5.45;4.78;;;;;;;29.09;48.15;69198.63;5078917;28;20232;-72
2021/06/27 07:37:23;;;;;;;6.65;4.78;;;;;;;29.12;51.28;69201.75;5055266;28;20228;-78
2021/06/27 07:39:50;;;;;;;6.80;4.63;;;;;;;29.20;48.67;69211.34;5064762;28;20230;-72
2021/06/27 07:42:19;;;;;;;6.00;4.72;;;;;;;29.21;53.77;69211.91;5053353;28;20694;-80
2021/06/27 07:44:46;;;;;;;6.20;4.82;;;;;;;29.22;52.37;69213.09;5056914;28;20205;-78
2021/06/27 07:47:13;;;;;;;5.93;4.77;;;;;;;29.28;49.89;69220.84;5038707;28;20224;-76
2021/06/27 07:49:40;;;;;;;5.35;4.38;;;;;;;29.34;50.21;69226.84;5054100;28;20209;-80
2021/06/27 07:52:10;;;;;;;6.45;4.50;;;;;;;29.43;48.53;69236.91;5058713;28;20210;-77
2021/06/27 07:54:37;;;;;;;5.95;4.20;;;;;;;29.47;48.77;69241.94;5056224;28;20201;-80
2021/06/27 07:57:06;;;;;;;5.43;3.97;;;;;;;29.53;48.48;69248.09;5066571;28;20304;-77
2021/06/27 07:59:34;;;;;;;5.40;3.97;;;;;;;29.62;45.97;69258.88;5062577;28;20680;-76
2021/06/27 08:02:02;;;;;;;4.20;3.80;;;;;;;29.68;47.37;69265.06;5053007;28;20202;-74
2021/06/27 08:04:29;;;;;;;4.00;3.60;;;;;;;29.82;44.23;69281.00;5040641;28;20206;-75
2021/06/27 08:06:56;;;;;;;5.97;3.45;;;;;;;29.98;43.00;69299.91;5058318;28;20230;-72
2021/06/27 08:09:24;;;;;;;4.43;3.65;;;;;;;30.04;47.37;69306.88;5057033;28;20209;-74
2021/06/27 08:11:51;;;;;;;5.03;3.95;;;;;;;30.15;43.52;69319.69;5056832;28;21034;-71
2021/06/27 08:14:18;;;;;;;4.28;3.67;;;;;;;30.22;44.55;69328.00;5043794;28;20206;-72
2021/06/27 08:16:47;;;;;;;9.15;4.00;;;;;;;30.31;43.77;69338.34;5051787;28;20486;-75
2021/06/27 08:19:14;;;;;;;5.20;3.75;;;;;;;30.46;41.76;69354.78;5049171;28;20650;-76
2021/06/27 08:21:41;;;;;;;4.70;3.70;;;;;;;30.60;41.06;69371.31;5057075;28;20212;-77
2021/06/27 08:24:09;;;;;;;4.05;3.50;;;;;;;30.68;43.63;69380.41;5051128;28;20206;-76
2021/06/27 08:26:36;;;;;;;5.78;3.80;;;;;;;30.85;40.85;69398.75;5052275;28;20760;-76
2021/06/27 08:29:04;;;;;;;4.75;3.88;;;;;;;31.02;37.97;69418.13;5052170;28;20210;-77
2021/06/27 08:31:31;;;;;;;5.43;3.90;;;;;;;31.10;40.91;69427.16;5050082;28;20202;-73
2021/06/27 08:34:00;;;;;;;6.43;3.72;;;;;;;31.17;42.40;69434.78;5049865;28;20206;-73
2021/06/27 08:36:29;;;;;;;4.25;3.30;;;;;;;31.27;40.30;69446.75;5050868;28;20316;-79
2021/06/27 08:38:57;;;;;;;3.40;3.10;;;;;;;31.41;38.31;69462.31;5053205;28;20233;-75
2021/06/27 08:41:24;;;;;;;3.05;2.75;;;;;;;31.44;40.81;69465.59;5054045;28;20289;-75
2021/06/27 08:43:52;;;;;;;3.65;2.83;;;;;;;31.49;40.57;69472.06;5056311;28;20288;-76
2021/06/27 08:46:21;;;;;;;3.08;2.78;;;;;;;31.50;41.36;69473.38;5054196;28;20212;-71
2021/06/27 08:48:49;;;;;;;3.60;2.85;;;;;;;31.55;39.88;69478.56;5048699;28;20213;-70
2021/06/27 08:51:17;;;;;;;3.40;2.90;;;;;;;31.59;39.42;69483.47;5046566;28;20257;-70
2021/06/27 08:53:45;;;;;;;4.22;3.17;;;;;;;31.63;39.10;69488.38;5052567;28;20293;-70
2021/06/27 08:56:13;;;;;;;3.35;2.85;;;;;;;31.70;38.44;69496.47;5052474;28;20229;-70
2021/06/27 08:58:41;;;;;;;2.72;2.53;;;;;;;31.68;40.01;69493.69;5054457;28;20226;-70
2021/06/27 09:01:12;;;;;;;2.90;2.60;;;;;;;31.74;37.67;69500.59;5054734;28;20202;-70
2021/06/27 09:03:40;;;;;;;3.17;2.67;;;;;;;31.84;36.68;69511.63;5053162;28;20217;-70
2021/06/27 09:06:09;;;;;;;3.80;2.80;;;;;;;31.96;35.29;69524.66;5054397;28;20206;-70
2021/06/27 09:08:38;;;;;;;6.43;2.80;;;;;;;32.11;33.79;69541.50;5053947;28;20320;-70
2021/06/27 09:11:15;;;;;;;2.85;2.60;;;;;;;32.15;35.07;69546.56;5054761;28;20718;-71
2021/06/27 09:13:44;;;;;;;4.05;2.95;;;;;;;32.12;37.54;69542.75;5053990;28;20210;-70
2021/06/27 09:16:20;;;;;;;4.65;2.50;;;;;;;32.20;34.25;69552.13;5054636;28;20222;-70
2021/06/27 09:18:48;;;;;;;3.55;2.70;;;;;;;32.24;35.05;69556.34;5053090;28;20692;-70
2021/06/27 09:21:15;;;;;;;3.33;2.65;;;;;;;32.23;35.52;69555.06;5054317;28;20604;-70
2021/06/27 09:23:47;;;;;;;3.92;2.60;;;;;;;32.26;35.69;69558.16;5053583;28;20206;-70
2021/06/27 09:26:27;;;;;;;3.75;2.35;;;;;;;32.29;34.64;69561.91;5054308;28;20194;-70
2021/06/27 09:28:54;;;;;;;2.83;2.53;;;;;;;32.27;36.81;69560.06;5053967;28;20216;-70
2021/06/27 09:31:39;;;;;;;2.80;2.60;;;;;;;32.29;35.97;69561.91;5052676;28;20205;-70
2021/06/27 09:34:08;;;;;;;2.45;2.25;;;;;;;32.28;35.20;69560.72;5050822;28;20229;-70
2021/06/27 09:36:42;;;;;;;2.58;2.15;;;;;;;32.31;33.60;69564.38;5053745;28;20271;-71
2021/06/27 09:39:13;;;;;;;2.65;2.13;;;;;;;32.33;34.66;69566.41;5054112;28;20208;-70
2021/06/27 09:41:51;;;;;;;2.83;2.53;;;;;;;32.39;34.62;69573.31;5054036;28;20635;-71
2021/06/27 09:44:19;;;;;;;2.40;2.20;;;;;;;32.46;33.93;69581.19;5053940;28;20205;-71
2021/06/27 09:46:50;;;;;;;5.35;2.08;;;;;;;32.49;34.34;69583.91;5052539;28;20232;-71
2021/06/27 09:49:19;;;;;;;2.78;2.35;;;;;;;32.57;32.92;69594.03;5054119;28;20227;-71
2021/06/27 09:51:51;;;;;;;2.72;2.42;;;;;;;32.76;29.91;69616.00;5048683;28;20206;-71
2021/06/27 09:54:20;;;;;;;4.80;2.20;;;;;;;32.80;32.80;69620.94;5052672;28;20748;-73
2021/06/27 09:56:48;;;;;;;3.10;2.80;;;;;;;32.77;33.58;69616.78;5059423;28;20295;-70
2021/06/27 09:59:17;;;;;;;2.65;2.45;;;;;;;32.86;31.68;69627.69;5053183;28;20209;-70
2021/06/27 10:01:45;;;;;;;2.35;2.00;;;;;;;32.96;31.72;69638.88;5051169;28;20205;-70
2021/06/27 10:04:14;;;;;;;2.60;2.40;;;;;;;33.01;33.78;69644.06;5053566;28;20198;-71
2021/06/27 10:06:59;;;;;;;3.17;2.50;;;;;;;33.10;30.93;69654.34;5053508;28;20741;-72
2021/06/27 10:09:32;;;;;;;3.72;2.50;;;;;;;33.23;30.28;69667.94;5053782;28;20212;-72
2021/06/27 10:12:01;;;;;;;2.72;2.25;;;;;;;33.30;30.84;69676.34;5045163;28;20203;-72
2021/06/27 10:14:31;;;;;;;3.10;2.13;;;;;;;33.31;33.28;69677.28;5052973;28;20306;-72
2021/06/27 10:17:00;;;;;;;2.58;2.13;;;;;;;33.36;32.56;69682.63;5052130;28;20239;-71
2021/06/27 10:19:28;;;;;;;2.80;2.55;;;;;;;33.47;31.35;69695.56;5053369;28;20662;-71
2021/06/27 10:21:56;;;;;;;4.00;2.20;;;;;;;33.45;33.18;69693.25;5053147;28;20199;-72
2021/06/27 10:24:26;;;;;;;4.93;2.60;;;;;;;33.51;31.32;69699.31;5052444;28;20209;-72
2021/06/27 10:26:55;;;;;;;2.53;2.20;;;;;;;33.62;30.29;69712.91;5053205;28;20226;-72
2021/06/27 10:29:24;;;;;;;4.50;2.42;;;;;;;33.72;30.33;69723.81;5053990;28;20217;-71
2021/06/27 10:31:52;;;;;;;2.63;2.33;;;;;;;33.79;30.27;69732.09;5051938;28;20217;-72
2021/06/27 10:34:20;;;;;;;3.10;2.10;;;;;;;33.81;30.51;69733.97;5053434;28;20700;-72
2021/06/27 10:36:51;;;;;;;4.60;2.03;;;;;;;33.94;29.17;69748.53;5058511;28;20690;-70
2021/06/27 10:39:19;;;;;;;3.15;2.25;;;;;;;34.10;27.39;69767.34;5055776;28;20202;-70
2021/06/27 10:41:50;;;;;;;2.42;2.15;;;;;;;34.24;26.66;69782.59;5053171;28;20578;-70
2021/06/27 10:44:20;;;;;;;2.42;2.17;;;;;;;34.44;25.45;69805.53;5052505;28;20689;-70
2021/06/27 10:46:49;;;;;;;2.10;1.88;;;;;;;34.44;30.17;69806.16;5051503;28;20236;-70
2021/06/27 10:49:58;;;;;;;2.30;1.98;;;;;;;34.49;29.11;69811.34;5053236;28;20202;-70
2021/06/27 10:52:26;;;;;;;2.10;1.90;;;;;;;34.53;27.67;69816.06;5052587;28;20210;-70
2021/06/27 10:55:22;;;;;;;2.30;2.10;;;;;;;34.64;27.34;69828.25;5051809;28;20206;-70
2021/06/27 10:57:54;;;;;;;2.20;2.00;;;;;;;34.71;26.34;69836.03;5052756;28;20718;-79
2021/06/27 11:00:23;;;;;;;1.95;1.85;;;;;;;34.91;23.82;69857.94;5058683;28;20205;-78
2021/06/27 11:02:50;;;;;;;1.73;1.63;;;;;;;35.12;23.54;69881.38;5057022;28;20570;-77
2021/06/27 11:05:44;;;;;;;2.17;1.95;;;;;;;35.13;27.02;69882.47;5056989;28;20205;-77
2021/06/27 11:08:30;;;;;;;2.17;1.98;;;;;;;35.13;26.75;69882.59;5054382;28;20237;-77
2021/06/27 11:11:02;;;;;;;2.75;2.05;;;;;;;35.23;25.17;69893.69;5059006;28;20205;-79
2021/06/27 11:13:30;;;;;;;1.60;1.50;;;;;;;35.20;26.97;69889.56;5053635;28;20202;-77
2021/06/27 11:16:19;;;;;;;2.38;2.08;;;;;;;35.13;27.55;69881.78;5063166;28;20221;-76
2021/06/27 11:18:48;;;;;;;1.75;1.52;;;;;;;35.08;27.41;69875.06;5053416;28;20572;-74
2021/06/27 11:21:34;;;;;;;2.38;2.17;;;;;;;35.20;24.92;69889.00;5052771;28;20198;-74
2021/06/27 11:24:07;;;;;;;1.50;1.40;;;;;;;35.26;25.68;69895.53;5057977;28;20213;-77
2021/06/27 11:26:55;;;;;;;3.25;1.60;;;;;;;35.38;24.28;69909.63;5051711;28;20210;-76
2021/06/27 11:29:49;;;;;;;2.33;1.77;;;;;;;35.38;25.46;69909.13;5059166;28;20585;-74
2021/06/27 11:32:49;;;;;;;1.70;1.60;;;;;;;35.40;25.19;69910.97;5057281;28;20681;-80
2021/06/27 11:35:43;;;;;;;2.45;1.60;;;;;;;35.40;24.93;69911.00;5058534;28;20200;-82
2021/06/27 11:38:38;;;;;;;2.65;2.00;;;;;;;35.47;24.03;69919.34;5051794;28;20233;-80
2021/06/27 11:41:06;;;;;;;1.70;1.60;;;;;;;35.45;25.68;69916.22;5046116;28;20289;-78